sensor_id;sensor_type;location;lat;lon;timestamp;pressure;altitude;pressure_sealevel;temperature;humidity
21395;BME280;10858;42.714;23.180;2023-02-23T00:02:13;94239.66;;;4.36;78.55
21395;BME280;10858;42.714;23.180;2023-02-23T00:04:39;94235.91;;;4.13;79.44
21395;BME280;10858;42.714;23.180;2023-02-23T00:07:05;94229.34;;;4.20;79.84
21395;BME280;10858;42.714;23.180;2023-02-23T00:09:31;94233.66;;;4.34;78.68
21395;BME280;10858;42.714;23.180;2023-02-23T00:12:01;94231.63;;;4.12;79.40
21395;BME280;10858;42.714;23.180;2023-02-23T00:14:33;94231.06;;;4.07;79.84
21395;BME280;10858;42.714;23.180;2023-02-23T00:17:00;94233.81;;;4.06;80.02
21395;BME280;10858;42.714;23.180;2023-02-23T00:19:26;94233.44;;;4.24;79.52
21395;BME280;10858;42.714;23.180;2023-02-23T00:21:53;94229.16;;;4.36;78.95
21395;BME280;10858;42.714;23.180;2023-02-23T00:24:19;94237.22;;;4.20;79.40
21395;BME280;10858;42.714;23.180;2023-02-23T00:26:47;94226.31;;;4.26;79.15
21395;BME280;10858;42.714;23.180;2023-02-23T00:29:16;94227.78;;;4.30;78.96
21395;BME280;10858;42.714;23.180;2023-02-23T00:31:44;94234.25;;;4.25;79.55
21395;BME280;10858;42.714;23.180;2023-02-23T00:34:11;94231.97;;;4.20;79.85
21395;BME280;10858;42.714;23.180;2023-02-23T00:36:38;94231.56;;;4.26;79.76
21395;BME280;10858;42.714;23.180;2023-02-23T00:39:07;94235.72;;;4.29;79.54
21395;BME280;10858;42.714;23.180;2023-02-23T00:41:55;94230.69;;;4.26;79.29
21395;BME280;10858;42.714;23.180;2023-02-23T00:44:22;94228.59;;;3.92;79.10
21395;BME280;10858;42.714;23.180;2023-02-23T00:46:49;94219.53;;;3.83;80.09
21395;BME280;10858;42.714;23.180;2023-02-23T00:49:17;94222.41;;;3.93;79.62
21395;BME280;10858;42.714;23.180;2023-02-23T00:51:44;94225.19;;;4.04;79.57
21395;BME280;10858;42.714;23.180;2023-02-23T00:54:13;94228.56;;;4.06;79.48
21395;BME280;10858;42.714;23.180;2023-02-23T00:56:40;94219.53;;;4.10;79.94
21395;BME280;10858;42.714;23.180;2023-02-23T00:59:06;94231.28;;;4.17;79.88
21395;BME280;10858;42.714;23.180;2023-02-23T01:01:33;94233.44;;;4.24;79.23
21395;BME280;10858;42.714;23.180;2023-02-23T01:04:01;94237.41;;;4.17;79.55
21395;BME280;10858;42.714;23.180;2023-02-23T01:06:27;94238.94;;;4.07;79.42
21395;BME280;10858;42.714;23.180;2023-02-23T01:08:53;94236.22;;;4.09;79.24
21395;BME280;10858;42.714;23.180;2023-02-23T01:11:25;94235.13;;;4.38;79.20
21395;BME280;10858;42.714;23.180;2023-02-23T01:13:57;94239.34;;;4.41;78.76
21395;BME280;10858;42.714;23.180;2023-02-23T01:16:28;94242.31;;;4.49;78.19
21395;BME280;10858;42.714;23.180;2023-02-23T01:18:56;94235.78;;;4.54;78.96
21395;BME280;10858;42.714;23.180;2023-02-23T01:21:27;94235.38;;;4.60;78.92
21395;BME280;10858;42.714;23.180;2023-02-23T01:23:54;94230.00;;;4.49;78.54
21395;BME280;10858;42.714;23.180;2023-02-23T01:26:28;94230.22;;;4.46;78.66
21395;BME280;10858;42.714;23.180;2023-02-23T01:28:57;94233.88;;;4.44;78.29
21395;BME280;10858;42.714;23.180;2023-02-23T01:31:24;94234.88;;;4.16;79.19
21395;BME280;10858;42.714;23.180;2023-02-23T01:33:59;94239.31;;;4.28;79.34
21395;BME280;10858;42.714;23.180;2023-02-23T01:36:26;94237.75;;;4.38;79.82
21395;BME280;10858;42.714;23.180;2023-02-23T01:38:56;94233.78;;;4.45;79.57
21395;BME280;10858;42.714;23.180;2023-02-23T01:41:24;94236.72;;;4.53;78.65
21395;BME280;10858;42.714;23.180;2023-02-23T01:44:57;94236.53;;;4.17;78.97
21395;BME280;10858;42.714;23.180;2023-02-23T01:46:53;94238.75;;;4.10;79.18
21395;BME280;10858;42.714;23.180;2023-02-23T01:49:21;94237.56;;;4.02;79.48
21395;BME280;10858;42.714;23.180;2023-02-23T01:52:03;94236.75;;;3.75;79.43
21395;BME280;10858;42.714;23.180;2023-02-23T01:54:38;94234.50;;;3.69;79.24
21395;BME280;10858;42.714;23.180;2023-02-23T01:57:06;94236.97;;;3.58;79.32
21395;BME280;10858;42.714;23.180;2023-02-23T01:59:38;94238.59;;;3.46;79.72
21395;BME280;10858;42.714;23.180;2023-02-23T02:02:06;94239.81;;;3.40;79.37
21395;BME280;10858;42.714;23.180;2023-02-23T02:04:38;94233.91;;;3.37;79.26
21395;BME280;10858;42.714;23.180;2023-02-23T02:07:20;94230.09;;;3.42;79.90
21395;BME280;10858;42.714;23.180;2023-02-23T02:09:48;94232.31;;;3.49;79.79
21395;BME280;10858;42.714;23.180;2023-02-23T02:12:34;94238.75;;;3.43;80.35
21395;BME280;10858;42.714;23.180;2023-02-23T02:15:00;94233.25;;;3.33;81.01
21395;BME280;10858;42.714;23.180;2023-02-23T02:27:00;94239.75;;;3.69;80.66
21395;BME280;10858;42.714;23.180;2023-02-23T02:38:25;94234.41;;;3.70;79.76
21395;BME280;10858;42.714;23.180;2023-02-23T02:41:13;94234.59;;;3.67;80.34
21395;BME280;10858;42.714;23.180;2023-02-23T02:43:58;94234.34;;;3.58;80.71
21395;BME280;10858;42.714;23.180;2023-02-23T02:46:39;94236.06;;;3.44;81.16
21395;BME280;10858;42.714;23.180;2023-02-23T02:49:21;94229.59;;;3.50;81.23
21395;BME280;10858;42.714;23.180;2023-02-23T02:52:07;94220.41;;;3.43;80.96
21395;BME280;10858;42.714;23.180;2023-02-23T02:54:45;94229.72;;;3.34;81.06
21395;BME280;10858;42.714;23.180;2023-02-23T02:57:13;94228.41;;;3.27;81.89
21395;BME280;10858;42.714;23.180;2023-02-23T02:59:45;94224.19;;;3.25;82.62
21395;BME280;10858;42.714;23.180;2023-02-23T03:02:33;94219.63;;;3.28;82.44
21395;BME280;10858;42.714;23.180;2023-02-23T03:05:25;94224.13;;;3.26;82.83
21395;BME280;10858;42.714;23.180;2023-02-23T03:08:22;94222.03;;;3.31;82.59
21395;BME280;10858;42.714;23.180;2023-02-23T03:11:14;94221.53;;;3.39;81.67
21395;BME280;10858;42.714;23.180;2023-02-23T03:17:02;94230.88;;;3.57;80.37
21395;BME280;10858;42.714;23.180;2023-02-23T03:23:28;94234.03;;;3.21;80.92
21395;BME280;10858;42.714;23.180;2023-02-23T03:26:52;94234.13;;;3.20;81.43
21395;BME280;10858;42.714;23.180;2023-02-23T03:32:47;94243.56;;;3.36;82.02
21395;BME280;10858;42.714;23.180;2023-02-23T03:41:41;94249.78;;;3.62;80.26
21395;BME280;10858;42.714;23.180;2023-02-23T03:44:42;94259.25;;;3.65;79.95
21395;BME280;10858;42.714;23.180;2023-02-23T03:47:31;94256.91;;;3.60;79.62
21395;BME280;10858;42.714;23.180;2023-02-23T03:50:22;94255.44;;;3.56;79.26
21395;BME280;10858;42.714;23.180;2023-02-23T03:53:11;94268.06;;;3.50;79.27
21395;BME280;10858;42.714;23.180;2023-02-23T03:56:00;94266.97;;;3.39;79.08
21395;BME280;10858;42.714;23.180;2023-02-23T03:58:49;94261.91;;;3.51;79.27
21395;BME280;10858;42.714;23.180;2023-02-23T04:01:38;94268.38;;;3.31;78.99
21395;BME280;10858;42.714;23.180;2023-02-23T04:04:23;94254.97;;;3.50;79.00
21395;BME280;10858;42.714;23.180;2023-02-23T04:07:12;94258.53;;;3.49;79.52
21395;BME280;10858;42.714;23.180;2023-02-23T04:09:59;94265.47;;;3.35;80.43
21395;BME280;10858;42.714;23.180;2023-02-23T04:12:54;94263.31;;;3.42;80.08
21395;BME280;10858;42.714;23.180;2023-02-23T04:16:02;94264.69;;;3.62;79.29
21395;BME280;10858;42.714;23.180;2023-02-23T04:18:32;94266.56;;;3.60;79.33
21395;BME280;10858;42.714;23.180;2023-02-23T04:20:59;94255.59;;;3.53;79.34
21395;BME280;10858;42.714;23.180;2023-02-23T04:23:26;94258.91;;;3.42;79.27
21395;BME280;10858;42.714;23.180;2023-02-23T04:25:54;94259.50;;;3.19;79.91
21395;BME280;10858;42.714;23.180;2023-02-23T04:28:21;94254.09;;;3.08;79.95
21395;BME280;10858;42.714;23.180;2023-02-23T04:30:48;94265.00;;;3.01;80.16
21395;BME280;10858;42.714;23.180;2023-02-23T04:33:15;94259.59;;;2.90;80.43
21395;BME280;10858;42.714;23.180;2023-02-23T04:35:41;94253.34;;;2.78;80.90
21395;BME280;10858;42.714;23.180;2023-02-23T04:38:07;94249.94;;;2.62;81.58
21395;BME280;10858;42.714;23.180;2023-02-23T04:40:34;94261.34;;;2.61;82.01
21395;BME280;10858;42.714;23.180;2023-02-23T04:43:00;94259.84;;;2.71;82.12
21395;BME280;10858;42.714;23.180;2023-02-23T04:45:26;94259.69;;;2.74;81.54
21395;BME280;10858;42.714;23.180;2023-02-23T04:47:53;94254.81;;;2.68;81.56
21395;BME280;10858;42.714;23.180;2023-02-23T04:50:20;94259.09;;;2.69;81.25
21395;BME280;10858;42.714;23.180;2023-02-23T04:52:46;94257.78;;;2.48;81.36
21395;BME280;10858;42.714;23.180;2023-02-23T04:55:21;94256.84;;;2.49;80.88
21395;BME280;10858;42.714;23.180;2023-02-23T04:57:47;94255.81;;;2.51;80.48
21395;BME280;10858;42.714;23.180;2023-02-23T05:00:15;94265.28;;;2.68;80.67
21395;BME280;10858;42.714;23.180;2023-02-23T05:02:41;94256.09;;;2.61;81.04
21395;BME280;10858;42.714;23.180;2023-02-23T05:05:08;94259.16;;;2.39;81.87
21395;BME280;10858;42.714;23.180;2023-02-23T05:07:35;94258.88;;;2.30;81.91
21395;BME280;10858;42.714;23.180;2023-02-23T05:10:02;94259.56;;;2.18;82.57
21395;BME280;10858;42.714;23.180;2023-02-23T05:12:28;94260.00;;;2.40;82.98
21395;BME280;10858;42.714;23.180;2023-02-23T05:14:55;94258.81;;;2.45;83.44
21395;BME280;10858;42.714;23.180;2023-02-23T05:17:21;94260.38;;;2.34;83.75
21395;BME280;10858;42.714;23.180;2023-02-23T05:19:48;94265.22;;;2.26;83.91
21395;BME280;10858;42.714;23.180;2023-02-23T05:22:14;94265.72;;;2.17;83.87
21395;BME280;10858;42.714;23.180;2023-02-23T05:24:40;94270.03;;;2.18;84.02
21395;BME280;10858;42.714;23.180;2023-02-23T05:27:10;94273.56;;;2.17;84.74
21395;BME280;10858;42.714;23.180;2023-02-23T05:29:38;94263.31;;;2.14;84.98
21395;BME280;10858;42.714;23.180;2023-02-23T05:32:05;94274.38;;;2.33;84.76
21395;BME280;10858;42.714;23.180;2023-02-23T05:34:32;94273.88;;;2.56;83.93
21395;BME280;10858;42.714;23.180;2023-02-23T05:36:58;94276.03;;;2.64;83.58
21395;BME280;10858;42.714;23.180;2023-02-23T05:39:25;94282.66;;;2.55;83.73
21395;BME280;10858;42.714;23.180;2023-02-23T05:41:51;94286.38;;;2.51;83.54
21395;BME280;10858;42.714;23.180;2023-02-23T05:44:17;94289.97;;;2.64;83.04
21395;BME280;10858;42.714;23.180;2023-02-23T05:46:45;94288.09;;;2.66;82.25
21395;BME280;10858;42.714;23.180;2023-02-23T05:49:12;94301.81;;;2.55;82.53
21395;BME280;10858;42.714;23.180;2023-02-23T05:51:38;94302.72;;;2.70;82.62
21395;BME280;10858;42.714;23.180;2023-02-23T05:54:05;94303.09;;;2.78;82.64
21395;BME280;10858;42.714;23.180;2023-02-23T05:56:32;94310.22;;;2.90;82.38
21395;BME280;10858;42.714;23.180;2023-02-23T05:58:58;94310.59;;;2.98;82.74
21395;BME280;10858;42.714;23.180;2023-02-23T06:01:26;94317.91;;;3.21;81.85
21395;BME280;10858;42.714;23.180;2023-02-23T06:03:52;94321.53;;;3.33;82.43
21395;BME280;10858;42.714;23.180;2023-02-23T06:06:18;94315.47;;;3.61;82.23
21395;BME280;10858;42.714;23.180;2023-02-23T06:08:45;94303.25;;;4.27;83.17
21395;BME280;10858;42.714;23.180;2023-02-23T06:11:12;94318.13;;;4.92;80.75
21395;BME280;10858;42.714;23.180;2023-02-23T06:13:38;94323.91;;;4.85;78.74
21395;BME280;10858;42.714;23.180;2023-02-23T06:16:05;94318.47;;;4.61;79.61
21395;BME280;10858;42.714;23.180;2023-02-23T06:18:33;94322.66;;;5.15;79.26
21395;BME280;10858;42.714;23.180;2023-02-23T06:21:00;94324.44;;;5.28;77.94
21395;BME280;10858;42.714;23.180;2023-02-23T06:23:31;94318.63;;;6.22;76.92
21395;BME280;10858;42.714;23.180;2023-02-23T06:25:58;94326.25;;;7.97;74.02
21395;BME280;10858;42.714;23.180;2023-02-23T06:28:25;94328.88;;;9.66;70.95
21395;BME280;10858;42.714;23.180;2023-02-23T06:30:53;94327.97;;;9.77;65.41
21395;BME280;10858;42.714;23.180;2023-02-23T06:33:20;94325.69;;;9.72;65.16
21395;BME280;10858;42.714;23.180;2023-02-23T06:35:46;94325.97;;;9.69;65.32
21395;BME280;10858;42.714;23.180;2023-02-23T06:38:12;94330.97;;;9.63;64.29
21395;BME280;10858;42.714;23.180;2023-02-23T06:40:39;94329.16;;;9.93;64.82
21395;BME280;10858;42.714;23.180;2023-02-23T06:43:06;94328.03;;;10.66;65.41
21395;BME280;10858;42.714;23.180;2023-02-23T06:45:32;94332.13;;;11.27;64.46
21395;BME280;10858;42.714;23.180;2023-02-23T06:47:59;94336.44;;;11.09;62.27
21395;BME280;10858;42.714;23.180;2023-02-23T06:50:26;94328.88;;;11.43;62.22
21395;BME280;10858;42.714;23.180;2023-02-23T06:52:52;94333.66;;;11.39;60.76
21395;BME280;10858;42.714;23.180;2023-02-23T06:55:18;94331.44;;;11.16;60.21
21395;BME280;10858;42.714;23.180;2023-02-23T06:57:47;94338.81;;;11.41;62.30
21395;BME280;10858;42.714;23.180;2023-02-23T07:00:13;94337.28;;;10.81;60.12
21395;BME280;10858;42.714;23.180;2023-02-23T07:02:42;94337.13;;;10.23;62.39
21395;BME280;10858;42.714;23.180;2023-02-23T07:05:10;94337.28;;;10.01;63.12
21395;BME280;10858;42.714;23.180;2023-02-23T07:07:36;94341.00;;;10.69;61.12
21395;BME280;10858;42.714;23.180;2023-02-23T07:10:04;94342.63;;;11.38;59.85
21395;BME280;10858;42.714;23.180;2023-02-23T07:12:30;94344.53;;;11.84;56.69
21395;BME280;10858;42.714;23.180;2023-02-23T07:14:57;94341.41;;;11.88;55.18
21395;BME280;10858;42.714;23.180;2023-02-23T07:17:23;94335.16;;;12.17;54.82
21395;BME280;10858;42.714;23.180;2023-02-23T07:19:49;94342.50;;;12.42;53.11
21395;BME280;10858;42.714;23.180;2023-02-23T07:22:16;94343.59;;;13.82;52.73
21395;BME280;10858;42.714;23.180;2023-02-23T07:24:42;94335.25;;;14.28;49.53
21395;BME280;10858;42.714;23.180;2023-02-23T07:27:08;94335.72;;;14.57;48.96
21395;BME280;10858;42.714;23.180;2023-02-23T07:29:34;94327.75;;;14.65;47.70
21395;BME280;10858;42.714;23.180;2023-02-23T07:32:01;94331.53;;;14.88;48.50
21395;BME280;10858;42.714;23.180;2023-02-23T07:34:27;94329.94;;;16.24;45.31
21395;BME280;10858;42.714;23.180;2023-02-23T07:36:53;94323.53;;;17.27;43.19
21395;BME280;10858;42.714;23.180;2023-02-23T07:39:19;94326.16;;;17.35;40.80
21395;BME280;10858;42.714;23.180;2023-02-23T07:41:46;94328.41;;;17.76;39.45
21395;BME280;10858;42.714;23.180;2023-02-23T07:44:12;94321.00;;;18.01;38.89
21395;BME280;10858;42.714;23.180;2023-02-23T07:46:38;94320.56;;;18.49;37.79
21395;BME280;10858;42.714;23.180;2023-02-23T07:49:04;94317.31;;;18.98;36.74
21395;BME280;10858;42.714;23.180;2023-02-23T07:51:31;94318.88;;;18.63;37.55
21395;BME280;10858;42.714;23.180;2023-02-23T07:54:02;94316.56;;;18.60;38.25
21395;BME280;10858;42.714;23.180;2023-02-23T07:56:29;94323.66;;;18.38;37.94
21395;BME280;10858;42.714;23.180;2023-02-23T07:58:55;94321.59;;;18.26;38.38
21395;BME280;10858;42.714;23.180;2023-02-23T08:01:22;94328.50;;;15.81;43.00
21395;BME280;10858;42.714;23.180;2023-02-23T08:03:48;94317.59;;;14.09;47.47
21395;BME280;10858;42.714;23.180;2023-02-23T08:06:18;94317.06;;;13.02;50.48
21395;BME280;10858;42.714;23.180;2023-02-23T08:08:44;94319.81;;;12.65;51.60
21395;BME280;10858;42.714;23.180;2023-02-23T08:11:11;94326.28;;;11.98;53.07
21395;BME280;10858;42.714;23.180;2023-02-23T08:13:37;94326.16;;;12.00;53.63
21395;BME280;10858;42.714;23.180;2023-02-23T08:16:03;94321.53;;;12.02;53.51
21395;BME280;10858;42.714;23.180;2023-02-23T08:18:30;94323.50;;;11.90;53.72
21395;BME280;10858;42.714;23.180;2023-02-23T08:21:03;94328.25;;;11.96;53.12
21395;BME280;10858;42.714;23.180;2023-02-23T08:23:31;94318.44;;;13.41;50.39
21395;BME280;10858;42.714;23.180;2023-02-23T08:25:58;94310.13;;;14.38;47.46
21395;BME280;10858;42.714;23.180;2023-02-23T08:28:25;94313.56;;;14.31;47.03
21395;BME280;10858;42.714;23.180;2023-02-23T08:30:51;94316.16;;;14.15;47.69
21395;BME280;10858;42.714;23.180;2023-02-23T08:33:17;94321.44;;;13.20;49.24
21395;BME280;10858;42.714;23.180;2023-02-23T08:35:43;94312.84;;;12.99;50.04
21395;BME280;10858;42.714;23.180;2023-02-23T08:38:10;94325.72;;;13.74;48.17
21395;BME280;10858;42.714;23.180;2023-02-23T08:40:36;94329.91;;;14.28;46.48
21395;BME280;10858;42.714;23.180;2023-02-23T08:43:02;94320.31;;;14.17;46.58
21395;BME280;10858;42.714;23.180;2023-02-23T08:45:29;94313.63;;;13.88;47.23
21395;BME280;10858;42.714;23.180;2023-02-23T08:47:56;94312.34;;;13.92;47.83
21395;BME280;10858;42.714;23.180;2023-02-23T08:50:22;94323.13;;;15.49;45.60
21395;BME280;10858;42.714;23.180;2023-02-23T08:52:48;94317.13;;;17.05;40.01
21395;BME280;10858;42.714;23.180;2023-02-23T08:55:15;94317.69;;;17.46;40.18
21395;BME280;10858;42.714;23.180;2023-02-23T08:57:43;94316.09;;;18.56;37.69
21395;BME280;10858;42.714;23.180;2023-02-23T09:00:09;94312.69;;;19.27;36.16
21395;BME280;10858;42.714;23.180;2023-02-23T09:02:43;94319.25;;;19.04;35.96
21395;BME280;10858;42.714;23.180;2023-02-23T09:05:10;94316.75;;;18.07;38.23
21395;BME280;10858;42.714;23.180;2023-02-23T09:07:37;94311.69;;;18.26;36.80
21395;BME280;10858;42.714;23.180;2023-02-23T09:10:04;94309.22;;;18.54;36.93
21395;BME280;10858;42.714;23.180;2023-02-23T09:12:30;94323.53;;;18.69;37.55
21395;BME280;10858;42.714;23.180;2023-02-23T09:14:57;94313.38;;;18.42;37.62
21395;BME280;10858;42.714;23.180;2023-02-23T09:17:23;94313.72;;;18.61;36.84
21395;BME280;10858;42.714;23.180;2023-02-23T09:19:50;94314.19;;;18.42;37.59
21395;BME280;10858;42.714;23.180;2023-02-23T09:22:16;94313.41;;;18.56;37.61
21395;BME280;10858;42.714;23.180;2023-02-23T09:24:43;94315.25;;;18.71;36.50
21395;BME280;10858;42.714;23.180;2023-02-23T09:27:09;94315.09;;;18.57;37.90
21395;BME280;10858;42.714;23.180;2023-02-23T09:29:38;94320.81;;;18.54;36.55
21395;BME280;10858;42.714;23.180;2023-02-23T09:32:08;94311.28;;;18.66;36.88
21395;BME280;10858;42.714;23.180;2023-02-23T09:34:35;94311.97;;;19.04;36.11
21395;BME280;10858;42.714;23.180;2023-02-23T09:37:04;94314.53;;;19.27;34.78
21395;BME280;10858;42.714;23.180;2023-02-23T09:39:32;94315.16;;;19.08;35.46
21395;BME280;10858;42.714;23.180;2023-02-23T09:42:14;94315.94;;;19.23;35.44
21395;BME280;10858;42.714;23.180;2023-02-23T09:48:04;94313.41;;;18.86;35.58
21395;BME280;10858;42.714;23.180;2023-02-23T09:50:34;94315.75;;;19.39;35.41
21395;BME280;10858;42.714;23.180;2023-02-23T09:53:28;94310.63;;;20.07;33.66
21395;BME280;10858;42.714;23.180;2023-02-23T09:55:57;94317.94;;;19.92;33.66
21395;BME280;10858;42.714;23.180;2023-02-23T09:58:26;94314.25;;;19.93;34.51
21395;BME280;10858;42.714;23.180;2023-02-23T10:01:20;94312.41;;;20.77;32.23
21395;BME280;10858;42.714;23.180;2023-02-23T10:04:16;94309.28;;;21.07;31.37
21395;BME280;10858;42.714;23.180;2023-02-23T10:06:53;94299.63;;;21.26;31.58
21395;BME280;10858;42.714;23.180;2023-02-23T10:12:30;94303.91;;;20.46;32.31
21395;BME280;10858;42.714;23.180;2023-02-23T10:20:25;94292.50;;;21.12;31.82
21395;BME280;10858;42.714;23.180;2023-02-23T10:22:55;94282.16;;;22.61;29.62
21395;BME280;10858;42.714;23.180;2023-02-23T10:25:29;94287.97;;;21.99;29.88
21395;BME280;10858;42.714;23.180;2023-02-23T10:27:58;94283.69;;;21.51;30.37
21395;BME280;10858;42.714;23.180;2023-02-23T10:30:29;94282.25;;;21.01;31.30
21395;BME280;10858;42.714;23.180;2023-02-23T10:35:36;94271.84;;;20.57;32.17
21395;BME280;10858;42.714;23.180;2023-02-23T10:38:04;94277.03;;;21.34;31.11
21395;BME280;10858;42.714;23.180;2023-02-23T10:40:32;94271.50;;;22.79;28.79
21395;BME280;10858;42.714;23.180;2023-02-23T10:43:02;94264.09;;;23.63;27.79
21395;BME280;10858;42.714;23.180;2023-02-23T10:45:33;94256.19;;;23.17;28.27
21395;BME280;10858;42.714;23.180;2023-02-23T10:48:07;94261.06;;;22.96;28.09
21395;BME280;10858;42.714;23.180;2023-02-23T10:50:36;94251.75;;;22.78;28.22
21395;BME280;10858;42.714;23.180;2023-02-23T10:58:53;94246.41;;;23.16;27.69
21395;BME280;10858;42.714;23.180;2023-02-23T11:01:40;94243.50;;;23.18;27.33
21395;BME280;10858;42.714;23.180;2023-02-23T11:06:39;94232.28;;;21.85;29.59
21395;BME280;10858;42.714;23.180;2023-02-23T11:09:25;94232.44;;;21.57;29.55
21395;BME280;10858;42.714;23.180;2023-02-23T11:12:16;94227.22;;;21.49;30.57
21395;BME280;10858;42.714;23.180;2023-02-23T11:14:51;94229.50;;;21.46;30.34
21395;BME280;10858;42.714;23.180;2023-02-23T11:17:32;94215.66;;;21.81;29.94
21395;BME280;10858;42.714;23.180;2023-02-23T11:20:04;94227.22;;;21.36;30.57
21395;BME280;10858;42.714;23.180;2023-02-23T11:22:33;94218.84;;;21.11;30.44
21395;BME280;10858;42.714;23.180;2023-02-23T11:25:02;94212.66;;;20.36;31.96
21395;BME280;10858;42.714;23.180;2023-02-23T11:27:32;94212.22;;;19.77;32.87
21395;BME280;10858;42.714;23.180;2023-02-23T11:30:03;94208.75;;;19.62;33.01
21395;BME280;10858;42.714;23.180;2023-02-23T11:32:33;94209.28;;;19.30;33.96
21395;BME280;10858;42.714;23.180;2023-02-23T11:35:33;94201.59;;;19.97;32.47
21395;BME280;10858;42.714;23.180;2023-02-23T11:38:20;94195.41;;;20.03;32.96
21395;BME280;10858;42.714;23.180;2023-02-23T11:41:04;94201.53;;;19.90;32.92
21395;BME280;10858;42.714;23.180;2023-02-23T11:43:32;94203.09;;;19.78;32.50
21395;BME280;10858;42.714;23.180;2023-02-23T11:46:00;94193.84;;;19.60;33.15
21395;BME280;10858;42.714;23.180;2023-02-23T11:50:55;94197.88;;;19.49;33.39
21395;BME280;10858;42.714;23.180;2023-02-23T11:53:43;94195.16;;;19.70;33.42
21395;BME280;10858;42.714;23.180;2023-02-23T11:56:11;94197.22;;;19.68;33.21
21395;BME280;10858;42.714;23.180;2023-02-23T11:58:53;94189.66;;;20.12;33.15
21395;BME280;10858;42.714;23.180;2023-02-23T12:01:33;94191.91;;;20.30;31.67
21395;BME280;10858;42.714;23.180;2023-02-23T12:04:00;94187.09;;;20.25;32.58
21395;BME280;10858;42.714;23.180;2023-02-23T12:06:32;94181.31;;;20.01;32.49
21395;BME280;10858;42.714;23.180;2023-02-23T12:09:25;94184.66;;;20.78;31.66
21395;BME280;10858;42.714;23.180;2023-02-23T12:12:08;94175.63;;;20.51;31.28
21395;BME280;10858;42.714;23.180;2023-02-23T12:15:05;94182.63;;;19.56;33.05
21395;BME280;10858;42.714;23.180;2023-02-23T12:17:44;94182.88;;;19.61;32.40
21395;BME280;10858;42.714;23.180;2023-02-23T12:20:21;94174.22;;;20.21;32.20
21395;BME280;10858;42.714;23.180;2023-02-23T12:23:09;94166.38;;;19.98;32.13
21395;BME280;10858;42.714;23.180;2023-02-23T12:25:45;94170.69;;;19.93;33.04
21395;BME280;10858;42.714;23.180;2023-02-23T12:30:52;94169.78;;;20.13;32.84
21395;BME280;10858;42.714;23.180;2023-02-23T12:33:41;94170.19;;;20.10;32.40
21395;BME280;10858;42.714;23.180;2023-02-23T12:36:18;94157.69;;;20.78;31.62
21395;BME280;10858;42.714;23.180;2023-02-23T12:39:27;94164.16;;;20.43;32.08
21395;BME280;10858;42.714;23.180;2023-02-23T12:42:25;94162.72;;;20.12;32.28
21395;BME280;10858;42.714;23.180;2023-02-23T12:44:57;94164.63;;;20.53;31.82
21395;BME280;10858;42.714;23.180;2023-02-23T12:47:39;94157.03;;;19.94;32.46
21395;BME280;10858;42.714;23.180;2023-02-23T12:53:25;94145.91;;;19.76;32.58
21395;BME280;10858;42.714;23.180;2023-02-23T12:59:03;94154.09;;;19.89;32.86
21395;BME280;10858;42.714;23.180;2023-02-23T13:01:58;94152.28;;;20.24;32.17
21395;BME280;10858;42.714;23.180;2023-02-23T13:07:38;94155.88;;;20.38;31.55
21395;BME280;10858;42.714;23.180;2023-02-23T13:18:05;94149.09;;;20.55;31.24
21395;BME280;10858;42.714;23.180;2023-02-23T13:20:50;94151.91;;;20.87;31.13
21395;BME280;10858;42.714;23.180;2023-02-23T13:23:31;94149.69;;;20.44;31.03
21395;BME280;10858;42.714;23.180;2023-02-23T13:29:20;94142.38;;;19.69;32.51
21395;BME280;10858;42.714;23.180;2023-02-23T13:31:49;94142.16;;;19.43;32.76
21395;BME280;10858;42.714;23.180;2023-02-23T13:34:25;94148.75;;;19.40;32.92
21395;BME280;10858;42.714;23.180;2023-02-23T13:36:52;94138.13;;;19.60;33.02
21395;BME280;10858;42.714;23.180;2023-02-23T13:42:14;94143.63;;;19.73;33.53
21395;BME280;10858;42.714;23.180;2023-02-23T13:50:41;94143.56;;;19.18;33.57
21395;BME280;10858;42.714;23.180;2023-02-23T13:53:01;94140.47;;;19.21;33.97
21395;BME280;10858;42.714;23.180;2023-02-23T13:55:35;94149.25;;;18.87;34.11
21395;BME280;10858;42.714;23.180;2023-02-23T13:58:10;94144.19;;;18.78;35.05
21395;BME280;10858;42.714;23.180;2023-02-23T14:00:40;94147.56;;;18.65;34.81
21395;BME280;10858;42.714;23.180;2023-02-23T14:03:19;94142.44;;;18.70;35.02
21395;BME280;10858;42.714;23.180;2023-02-23T14:05:46;94145.75;;;18.72;35.96
21395;BME280;10858;42.714;23.180;2023-02-23T14:08:35;94139.34;;;18.37;36.30
21395;BME280;10858;42.714;23.180;2023-02-23T14:11:02;94139.44;;;18.44;36.02
21395;BME280;10858;42.714;23.180;2023-02-23T14:13:32;94142.22;;;18.50;35.88
21395;BME280;10858;42.714;23.180;2023-02-23T14:18:54;94136.28;;;18.40;35.77
21395;BME280;10858;42.714;23.180;2023-02-23T14:21:31;94134.66;;;18.10;36.34
21395;BME280;10858;42.714;23.180;2023-02-23T14:24:19;94135.97;;;17.85;36.68
21395;BME280;10858;42.714;23.180;2023-02-23T14:27:55;94137.44;;;17.73;37.25
21395;BME280;10858;42.714;23.180;2023-02-23T14:30:25;94134.50;;;17.97;36.51
21395;BME280;10858;42.714;23.180;2023-02-23T14:32:51;94135.78;;;18.01;36.65
21395;BME280;10858;42.714;23.180;2023-02-23T14:38:08;94133.53;;;17.90;36.62
21395;BME280;10858;42.714;23.180;2023-02-23T14:40:40;94129.28;;;18.25;36.47
21395;BME280;10858;42.714;23.180;2023-02-23T14:43:43;94144.63;;;17.58;38.85
21395;BME280;10858;42.714;23.180;2023-02-23T14:46:30;94137.50;;;16.68;41.64
21395;BME280;10858;42.714;23.180;2023-02-23T14:48:58;94141.53;;;16.64;42.33
21395;BME280;10858;42.714;23.180;2023-02-23T14:51:35;94140.13;;;16.76;42.28
21395;BME280;10858;42.714;23.180;2023-02-23T14:56:53;94145.28;;;16.16;43.92
21395;BME280;10858;42.714;23.180;2023-02-23T14:59:25;94143.56;;;15.92;44.61
21395;BME280;10858;42.714;23.180;2023-02-23T15:01:53;94140.97;;;15.68;45.04
21395;BME280;10858;42.714;23.180;2023-02-23T15:04:23;94145.88;;;15.24;46.46